createdAt,value
2018-07-21T00:00:50.252Z,21.27
2018-07-21T00:03:19.331Z,21.13
2018-07-21T00:05:48.152Z,20.88
2018-07-21T00:08:17.328Z,20.77
2018-07-21T00:10:46.378Z,20.59
2018-07-21T00:13:15.446Z,20.31
2018-07-21T00:15:44.402Z,20.05
2018-07-21T00:18:13.219Z,19.91
2018-07-21T00:20:42.238Z,19.85
2018-07-21T00:23:11.114Z,19.81
2018-07-21T00:25:39.933Z,19.64
2018-07-21T00:28:08.897Z,19.52
2018-07-21T00:30:37.774Z,19.46
2018-07-21T00:33:06.822Z,19.41
2018-07-21T00:35:35.744Z,19.43
2018-07-21T00:38:04.727Z,19.48
2018-07-21T00:40:33.780Z,19.49
2018-07-21T00:43:02.584Z,19.56
2018-07-21T00:45:31.655Z,19.61
2018-07-21T00:48:00.571Z,19.66
2018-07-21T00:50:29.792Z,19.67
2018-07-21T00:52:58.682Z,19.67
2018-07-21T00:55:28.440Z,19.71
2018-07-21T00:57:57.424Z,19.72
2018-07-21T01:00:26.196Z,19.74
2018-07-21T01:02:54.894Z,19.68
2018-07-21T01:05:23.619Z,19.44
2018-07-21T01:07:52.881Z,19.19
2018-07-21T01:10:21.816Z,18.81
2018-07-21T01:12:50.707Z,18.48
2018-07-21T01:15:19.288Z,18.12
2018-07-21T01:17:47.938Z,18.01
2018-07-21T01:20:18.785Z,17.98
2018-07-21T01:22:47.395Z,17.92
2018-07-21T01:27:43.680Z,17.92
2018-07-21T01:30:12.378Z,17.89
2018-07-21T01:32:40.982Z,18.09
2018-07-21T01:35:10.866Z,18.19
2018-07-21T01:37:39.628Z,18.29
2018-07-21T01:40:08.544Z,18.40
2018-07-21T01:42:37.324Z,18.49
2018-07-21T01:45:07.195Z,18.56
2018-07-21T01:47:36.029Z,18.58
2018-07-21T01:50:04.950Z,18.57
2018-07-21T01:52:33.880Z,18.52
2018-07-21T01:55:02.487Z,18.49
2018-07-21T01:57:31.223Z,18.44
2018-07-21T01:59:59.884Z,18.35
2018-07-21T02:02:28.647Z,18.31
2018-07-21T02:04:57.292Z,18.29
2018-07-21T02:07:26.005Z,18.24
2018-07-21T02:09:54.551Z,18.21
2018-07-21T02:12:23.240Z,18.17
2018-07-21T02:14:52.008Z,18.14
2018-07-21T02:17:20.541Z,18.12
2018-07-21T02:19:49.289Z,18.14
2018-07-21T02:22:18.190Z,18.19
2018-07-21T02:24:46.913Z,18.25
2018-07-21T02:27:15.771Z,18.31
2018-07-21T02:29:44.442Z,18.39
2018-07-21T02:32:13.163Z,18.50
2018-07-21T02:34:41.896Z,18.61
2018-07-21T02:37:10.600Z,18.73
2018-07-21T02:39:39.205Z,18.86
2018-07-21T02:42:07.902Z,18.95
2018-07-21T02:44:36.462Z,19.02
2018-07-21T02:47:05.203Z,19.02
2018-07-21T02:49:33.746Z,19.01
2018-07-21T02:52:02.327Z,18.99
2018-07-21T02:54:30.968Z,18.95
2018-07-21T02:56:59.659Z,18.88
2018-07-21T02:59:28.491Z,18.83
2018-07-21T03:01:57.273Z,18.80
2018-07-21T03:04:25.963Z,18.75
2018-07-21T03:06:54.636Z,18.75
2018-07-21T03:09:23.243Z,18.81
2018-07-21T03:11:51.898Z,18.82
2018-07-21T03:14:20.564Z,18.81
2018-07-21T03:16:49.266Z,18.78
2018-07-21T03:19:18.014Z,18.74
2018-07-21T03:21:46.684Z,18.71
2018-07-21T03:24:15.409Z,18.75
2018-07-21T03:26:44.090Z,18.88
2018-07-21T03:29:13.702Z,18.91
2018-07-21T03:31:42.408Z,18.96
2018-07-21T03:34:11.606Z,19.07
2018-07-21T03:36:40.256Z,19.10
2018-07-21T03:39:10.777Z,19.14
2018-07-21T03:41:39.593Z,19.10
2018-07-21T03:44:08.268Z,19.07
2018-07-21T03:46:36.990Z,19.06
2018-07-21T03:49:05.652Z,19.00
2018-07-21T03:51:34.285Z,18.92
2018-07-21T03:54:02.950Z,18.85
2018-07-21T03:56:31.524Z,18.85
2018-07-21T03:59:00.312Z,18.82
2018-07-21T04:01:28.903Z,18.79
2018-07-21T04:03:58.437Z,18.80
2018-07-21T04:06:27.119Z,18.77
2018-07-21T04:08:56.390Z,18.71
2018-07-21T04:11:25.185Z,18.68
2018-07-21T04:13:53.821Z,18.65
2018-07-21T04:16:22.697Z,18.61
2018-07-21T04:18:51.397Z,18.61
2018-07-21T04:21:20.086Z,18.63
2018-07-21T04:23:48.764Z,18.68
2018-07-21T04:26:17.615Z,18.70
2018-07-21T04:28:46.452Z,18.69
2018-07-21T04:31:15.114Z,18.66
2018-07-21T04:33:43.935Z,18.64
2018-07-21T04:36:12.631Z,18.69
2018-07-21T04:38:41.322Z,18.71
2018-07-21T04:41:10.827Z,18.71
2018-07-21T04:43:39.590Z,18.69
2018-07-21T04:46:08.286Z,18.69
2018-07-21T04:48:37.054Z,18.71
2018-07-21T04:51:05.799Z,18.75
2018-07-21T04:53:34.591Z,18.76
2018-07-21T04:56:03.275Z,18.75
2018-07-21T04:58:31.979Z,18.75
2018-07-21T05:01:00.691Z,18.79
2018-07-21T05:03:29.286Z,18.82
2018-07-21T05:05:58.275Z,18.88
2018-07-21T05:08:26.977Z,18.93
2018-07-21T05:10:55.772Z,19.03
2018-07-21T05:13:24.749Z,19.19
2018-07-21T05:15:53.275Z,19.35
2018-07-21T05:18:22.626Z,19.51
2018-07-21T05:20:51.526Z,19.67
2018-07-21T05:23:20.149Z,19.84
2018-07-21T05:25:49.033Z,20.00
2018-07-21T05:28:18.660Z,20.18
2018-07-21T05:30:47.393Z,20.33
2018-07-21T05:33:16.128Z,20.46
2018-07-21T05:35:44.887Z,20.58
2018-07-21T05:38:13.581Z,20.68
2018-07-21T05:40:42.385Z,20.78
2018-07-21T05:43:11.130Z,20.90
2018-07-21T05:45:39.794Z,21.03
2018-07-21T05:48:08.620Z,21.16
2018-07-21T05:50:37.382Z,21.25
2018-07-21T05:53:06.224Z,21.35
2018-07-21T05:55:34.936Z,21.41
2018-07-21T05:58:03.696Z,21.45
2018-07-21T06:00:32.377Z,21.49
2018-07-21T06:03:01.161Z,21.64
2018-07-21T06:05:29.954Z,21.79
2018-07-21T06:07:58.793Z,21.96
2018-07-21T06:10:27.430Z,22.10
2018-07-21T06:12:56.468Z,22.23
2018-07-21T06:15:25.179Z,22.32
2018-07-21T06:17:54.100Z,22.38
2018-07-21T06:20:22.793Z,22.40
2018-07-21T06:22:51.626Z,22.35
2018-07-21T06:25:20.472Z,22.30
2018-07-21T06:27:49.059Z,22.24
2018-07-21T06:30:17.779Z,22.14
2018-07-21T06:32:46.613Z,21.95
2018-07-21T06:35:15.292Z,21.75
2018-07-21T06:37:44.012Z,21.58
2018-07-21T06:40:12.666Z,21.39
2018-07-21T06:42:41.477Z,21.27
2018-07-21T06:45:10.266Z,21.21
2018-07-21T06:47:39.052Z,21.16
2018-07-21T06:50:08.446Z,21.15
2018-07-21T06:52:37.124Z,21.17
2018-07-21T06:55:05.935Z,21.30
2018-07-21T06:57:34.708Z,21.48
2018-07-21T07:00:03.458Z,21.65
2018-07-21T07:02:32.165Z,21.72
2018-07-21T07:05:00.896Z,21.76
2018-07-21T07:07:29.548Z,21.77
2018-07-21T07:09:58.232Z,21.77
2018-07-21T07:12:26.972Z,21.75
2018-07-21T07:14:55.756Z,21.70
2018-07-21T07:17:24.494Z,21.62
2018-07-21T07:19:53.360Z,21.53
2018-07-21T07:22:22.030Z,21.42
2018-07-21T07:24:50.989Z,21.36
2018-07-21T07:27:19.752Z,21.47
2018-07-21T07:29:48.354Z,21.69
2018-07-21T07:32:17.124Z,21.93
2018-07-21T07:34:45.878Z,22.21
2018-07-21T07:37:14.636Z,22.39
2018-07-21T07:39:43.476Z,22.48
2018-07-21T07:42:12.113Z,22.51
2018-07-21T07:44:40.941Z,22.56
2018-07-21T07:47:09.707Z,22.58
2018-07-21T07:49:38.506Z,22.53
2018-07-21T07:52:07.285Z,22.44
2018-07-21T07:54:36.118Z,22.35
2018-07-21T07:57:04.852Z,22.33
2018-07-21T07:59:33.529Z,22.33
2018-07-21T08:02:02.284Z,22.39
2018-07-21T08:04:30.946Z,22.59
2018-07-21T08:06:59.657Z,22.85
2018-07-21T08:09:28.470Z,23.09
2018-07-21T08:11:57.210Z,23.34
2018-07-21T08:14:26.097Z,23.57
2018-07-21T08:16:54.852Z,23.78
2018-07-21T08:19:23.702Z,23.95
2018-07-21T08:21:52.431Z,24.21
2018-07-21T08:24:21.278Z,24.43
2018-07-21T08:26:50.057Z,24.64
2018-07-21T08:29:18.750Z,24.89
2018-07-21T08:31:47.489Z,25.15
2018-07-21T08:34:16.228Z,25.35
2018-07-21T08:36:45.106Z,25.60
2018-07-21T08:39:13.887Z,25.97
2018-07-21T08:41:42.654Z,26.25
2018-07-21T08:44:11.348Z,26.25
2018-07-21T08:46:40.053Z,26.26
2018-07-21T08:49:08.895Z,26.28
2018-07-21T08:51:37.643Z,26.30
2018-07-21T08:54:06.307Z,26.38
2018-07-21T08:56:35.059Z,26.29
2018-07-21T08:59:04.010Z,26.22
2018-07-21T09:01:32.681Z,26.11
2018-07-21T09:04:01.432Z,26.07
2018-07-21T09:06:30.744Z,26.06
2018-07-21T09:08:59.627Z,26.27
2018-07-21T09:11:28.413Z,26.40
2018-07-21T09:13:57.356Z,26.48
2018-07-21T09:16:26.062Z,26.61
2018-07-21T09:18:54.772Z,26.65
2018-07-21T09:21:23.535Z,26.58
2018-07-21T09:23:52.214Z,26.43
2018-07-21T09:26:20.799Z,26.46
2018-07-21T09:28:49.516Z,26.55
2018-07-21T09:31:18.202Z,26.62
2018-07-21T09:33:46.950Z,26.86
2018-07-21T09:36:15.704Z,26.90
2018-07-21T09:38:44.424Z,26.94
2018-07-21T09:41:13.070Z,27.09
2018-07-21T09:43:41.930Z,27.13
2018-07-21T09:46:10.719Z,27.42
2018-07-21T09:48:39.466Z,27.67
2018-07-21T09:51:08.324Z,27.81
2018-07-21T09:53:37.166Z,27.54
2018-07-21T09:56:06.004Z,27.42
2018-07-21T09:58:34.804Z,27.47
2018-07-21T10:01:04.633Z,27.36
2018-07-21T10:03:34.624Z,27.30
2018-07-21T10:06:03.996Z,27.51
2018-07-21T10:08:33.740Z,27.83
2018-07-21T10:11:02.430Z,27.95
2018-07-21T10:13:31.217Z,28.10
2018-07-21T10:15:59.976Z,28.29
2018-07-21T10:18:28.771Z,28.47
2018-07-21T10:20:57.429Z,28.49
2018-07-21T10:23:26.101Z,28.47
2018-07-21T10:26:00.007Z,28.52
2018-07-21T10:28:33.903Z,28.52
2018-07-21T10:31:02.634Z,28.59
2018-07-21T10:33:31.339Z,28.75
2018-07-21T10:36:00.189Z,28.95
2018-07-21T10:38:29.033Z,28.88
2018-07-21T10:40:57.712Z,28.90
2018-07-21T10:43:26.481Z,29.07
2018-07-21T10:45:55.182Z,29.47
2018-07-21T10:48:23.921Z,29.74
2018-07-21T10:50:52.655Z,29.78
2018-07-21T10:53:21.248Z,29.57
2018-07-21T10:55:50.855Z,29.19
2018-07-21T10:58:19.607Z,28.99
2018-07-21T11:00:48.383Z,29.18
2018-07-21T11:03:17.132Z,29.35
2018-07-21T11:05:45.805Z,29.75
2018-07-21T11:08:14.422Z,30.26
2018-07-21T11:10:43.185Z,30.55
2018-07-21T11:13:12.880Z,30.55
2018-07-21T11:15:42.709Z,30.53
2018-07-21T11:18:11.486Z,30.63
2018-07-21T11:20:40.251Z,31.15
2018-07-21T11:23:09.034Z,31.39
2018-07-21T11:25:37.747Z,31.34
2018-07-21T11:28:06.541Z,31.39
2018-07-21T11:30:35.318Z,31.37
2018-07-21T11:33:04.034Z,31.11
2018-07-21T11:35:32.948Z,30.86
2018-07-21T11:38:01.496Z,30.24
2018-07-21T11:40:30.251Z,30.09
2018-07-21T11:42:58.906Z,30.40
2018-07-21T11:45:27.680Z,30.77
2018-07-21T11:47:56.368Z,30.96
2018-07-21T11:50:25.071Z,31.17
2018-07-21T11:52:53.740Z,31.41
2018-07-21T11:55:22.339Z,31.73
2018-07-21T11:57:50.961Z,31.69
2018-07-21T12:00:19.575Z,31.60
2018-07-21T12:02:48.238Z,31.52
2018-07-21T12:05:16.868Z,31.56
2018-07-21T12:07:45.627Z,31.70
2018-07-21T12:10:14.445Z,32.03
2018-07-21T12:12:43.183Z,32.36
2018-07-21T12:15:11.860Z,32.85
2018-07-21T12:17:40.885Z,33.56
2018-07-21T12:20:09.555Z,33.79
2018-07-21T12:22:38.261Z,34.07
2018-07-21T12:25:07.028Z,34.60
2018-07-21T12:27:35.900Z,35.11
2018-07-21T12:30:05.172Z,35.56
2018-07-21T12:32:33.938Z,36.08
2018-07-21T12:35:02.686Z,36.71
2018-07-21T12:37:31.700Z,37.30
2018-07-21T12:40:01.477Z,36.80
2018-07-21T12:42:30.250Z,36.50
2018-07-21T12:44:59.104Z,36.17
2018-07-21T12:47:27.826Z,35.85
2018-07-21T12:49:56.654Z,35.85
2018-07-21T12:52:25.396Z,36.78
2018-07-21T12:54:54.213Z,37.86
2018-07-21T12:57:22.957Z,37.83
2018-07-21T12:59:51.670Z,36.53
2018-07-21T13:02:20.515Z,35.47
2018-07-21T13:04:49.289Z,34.77
2018-07-21T13:07:21.583Z,34.52
2018-07-21T13:09:50.309Z,34.63
2018-07-21T13:12:19.083Z,34.85
2018-07-21T13:14:47.904Z,35.45
2018-07-21T13:17:16.606Z,36.56
2018-07-21T13:19:45.306Z,37.82
2018-07-21T13:22:14.117Z,37.58
2018-07-21T13:24:42.998Z,37.41
2018-07-21T13:27:11.654Z,37.14
2018-07-21T13:29:40.406Z,36.65
2018-07-21T13:32:09.510Z,36.91
2018-07-21T13:34:38.253Z,37.30
2018-07-21T13:37:07.106Z,37.02
2018-07-21T13:39:35.794Z,36.68
2018-07-21T13:42:04.629Z,36.50
2018-07-21T13:44:33.336Z,36.77
2018-07-21T13:47:02.118Z,37.22
2018-07-21T13:49:30.827Z,37.47
2018-07-21T13:51:59.510Z,37.57
2018-07-21T13:54:29.092Z,37.43
2018-07-21T13:56:57.838Z,36.95
2018-07-21T13:59:26.559Z,37.05
2018-07-21T14:01:55.324Z,37.07
2018-07-21T14:04:24.121Z,36.29
2018-07-21T14:06:52.880Z,36.00
2018-07-21T14:09:21.586Z,36.58
2018-07-21T14:11:50.676Z,36.55
2018-07-21T14:14:19.393Z,36.25
2018-07-21T14:16:48.144Z,36.13
2018-07-21T14:19:17.877Z,36.06
2018-07-21T14:21:46.590Z,36.04
2018-07-21T14:24:15.582Z,35.93
2018-07-21T14:26:44.278Z,36.08
2018-07-21T14:29:13.030Z,35.89
2018-07-21T14:31:41.641Z,35.81
2018-07-21T14:34:10.418Z,36.47
2018-07-21T14:36:39.160Z,36.86
2018-07-21T14:39:09.766Z,37.76
2018-07-21T14:41:38.811Z,39.08
2018-07-21T14:44:07.487Z,38.13
2018-07-21T14:46:36.380Z,37.14
2018-07-21T14:49:05.477Z,36.43
2018-07-21T14:51:34.430Z,35.92
2018-07-21T14:54:03.220Z,35.67
2018-07-21T14:56:31.918Z,35.25
2018-07-21T14:59:00.691Z,35.02
2018-07-21T15:01:29.373Z,35.06
2018-07-21T15:03:58.164Z,35.11
2018-07-21T15:06:26.929Z,35.32
2018-07-21T15:08:55.716Z,35.52
2018-07-21T15:11:24.498Z,34.90
2018-07-21T15:13:53.492Z,34.33
2018-07-21T15:16:22.282Z,34.81
2018-07-21T15:18:51.078Z,35.08
2018-07-21T15:21:19.731Z,34.75
2018-07-21T15:23:48.474Z,34.47
2018-07-21T15:26:17.117Z,34.39
2018-07-21T15:28:45.852Z,34.62
2018-07-21T15:31:14.621Z,35.43
2018-07-21T15:33:43.340Z,35.92
2018-07-21T15:36:12.096Z,35.75
2018-07-21T15:38:40.912Z,34.74
2018-07-21T15:41:09.667Z,33.40
2018-07-21T15:43:38.432Z,32.84
2018-07-21T15:46:07.351Z,32.88
2018-07-21T15:48:36.235Z,32.59
2018-07-21T15:51:05.066Z,32.51
2018-07-21T15:53:33.796Z,32.41
2018-07-21T15:56:03.576Z,32.35
2018-07-21T15:58:32.511Z,32.11
2018-07-21T16:01:01.154Z,31.80
2018-07-21T16:03:29.816Z,31.36
2018-07-21T16:05:58.586Z,30.85
2018-07-21T16:08:27.325Z,30.64
2018-07-21T16:10:55.969Z,31.94
2018-07-21T16:13:24.762Z,34.03
2018-07-21T16:15:53.509Z,36.02
2018-07-21T16:18:22.250Z,37.24
2018-07-21T16:20:50.918Z,36.52
2018-07-21T16:23:19.602Z,34.94
2018-07-21T16:25:48.325Z,33.63
2018-07-21T16:28:17.154Z,32.51
2018-07-21T16:30:45.796Z,31.69
2018-07-21T16:33:14.544Z,31.43
2018-07-21T16:35:43.292Z,31.44
2018-07-21T16:38:12.142Z,31.73
2018-07-21T16:40:40.894Z,32.51
2018-07-21T16:43:09.696Z,32.75
2018-07-21T16:45:38.422Z,32.27
2018-07-21T16:48:07.093Z,31.42
2018-07-21T16:50:35.877Z,30.45
2018-07-21T16:53:04.580Z,29.58
2018-07-21T16:55:33.331Z,28.85
2018-07-21T16:58:02.106Z,28.10
2018-07-21T17:00:30.762Z,27.38
2018-07-21T17:02:59.560Z,27.14
2018-07-21T17:05:28.343Z,26.75
2018-07-21T17:07:57.164Z,26.37
2018-07-21T17:10:25.974Z,26.13
2018-07-21T17:12:54.787Z,25.90
2018-07-21T17:15:23.502Z,25.63
2018-07-21T17:17:52.267Z,25.47
2018-07-21T17:20:21.043Z,25.29
2018-07-21T17:22:49.780Z,25.15
2018-07-21T17:25:18.551Z,24.86
2018-07-21T17:27:47.266Z,24.53
2018-07-21T17:30:16.015Z,24.30
2018-07-21T17:32:44.793Z,24.16
2018-07-21T17:35:13.553Z,24.15
2018-07-21T17:37:42.170Z,24.08
2018-07-21T17:40:10.878Z,24.03
2018-07-21T17:42:39.739Z,24.01
2018-07-21T17:45:08.572Z,23.95
2018-07-21T17:47:37.526Z,23.86
2018-07-21T17:50:06.230Z,23.81
2018-07-21T17:52:34.781Z,23.78
2018-07-21T17:55:03.775Z,23.71
2018-07-21T17:57:32.538Z,23.74
2018-07-21T18:00:01.349Z,23.74
2018-07-21T18:02:30.151Z,23.71
2018-07-21T18:04:59.109Z,23.68
2018-07-21T18:07:27.850Z,23.66
2018-07-21T18:09:56.671Z,23.64
2018-07-21T18:12:25.317Z,23.66
2018-07-21T18:14:53.977Z,23.63
2018-07-21T18:17:22.735Z,23.60
2018-07-21T18:19:51.472Z,23.52
2018-07-21T18:22:20.215Z,23.48
2018-07-21T18:24:48.995Z,23.48
2018-07-21T18:27:17.697Z,23.41
2018-07-21T18:29:46.480Z,23.31
2018-07-21T18:32:15.304Z,23.28
2018-07-21T18:34:44.028Z,23.25
2018-07-21T18:37:12.754Z,23.16
2018-07-21T18:39:41.647Z,23.05
2018-07-21T18:42:10.645Z,22.96
2018-07-21T18:44:39.269Z,22.76
2018-07-21T18:47:07.930Z,22.62
2018-07-21T18:49:37.764Z,22.60
2018-07-21T18:52:06.603Z,22.50
2018-07-21T18:54:35.204Z,22.30
2018-07-21T18:57:04.064Z,22.24
2018-07-21T18:59:32.921Z,22.27
2018-07-21T19:02:01.566Z,22.26
2018-07-21T19:04:30.312Z,22.14
2018-07-21T19:06:58.929Z,22.06
2018-07-21T19:09:27.652Z,22.11
2018-07-21T19:12:01.491Z,22.14
2018-07-21T19:14:30.291Z,22.14
2018-07-21T19:16:59.062Z,22.13
2018-07-21T19:19:32.967Z,22.16
2018-07-21T19:22:01.697Z,22.19
2018-07-21T19:24:30.448Z,22.18
2018-07-21T19:27:04.505Z,22.27
2018-07-21T19:29:33.197Z,22.24
2018-07-21T19:32:07.077Z,22.26
2018-07-21T19:34:35.685Z,22.24
2018-07-21T19:37:08.434Z,22.23
2018-07-21T19:39:37.184Z,22.16
2018-07-21T19:42:06.140Z,22.14
2018-07-21T19:44:34.841Z,22.12
2018-07-21T19:47:03.556Z,22.03
2018-07-21T19:49:32.121Z,21.88
2018-07-21T19:52:00.807Z,21.75
2018-07-21T19:54:29.503Z,21.67
2018-07-21T19:56:58.149Z,21.64
2018-07-21T19:59:26.889Z,21.75
2018-07-21T20:01:55.658Z,21.95
2018-07-21T20:04:24.298Z,22.05
2018-07-21T20:06:52.927Z,22.11
2018-07-21T20:09:21.564Z,22.02
2018-07-21T20:11:50.328Z,21.88
2018-07-21T20:14:18.932Z,21.75
2018-07-21T20:16:47.703Z,21.66
2018-07-21T20:19:16.260Z,21.52
2018-07-21T20:21:44.997Z,21.37
2018-07-21T20:24:13.691Z,21.15
2018-07-21T20:26:42.218Z,20.95
2018-07-21T20:29:10.739Z,20.93
2018-07-21T20:31:39.306Z,20.95
2018-07-21T20:34:07.928Z,20.88
2018-07-21T20:36:36.828Z,20.80
2018-07-21T20:39:08.016Z,20.60
2018-07-21T20:41:36.735Z,20.44
2018-07-21T20:44:05.517Z,20.26
2018-07-21T20:46:34.849Z,20.32
2018-07-21T20:49:03.566Z,20.46
2018-07-21T20:51:32.168Z,20.49
2018-07-21T20:54:00.754Z,20.44
2018-07-21T20:56:29.855Z,20.43
2018-07-21T20:58:58.474Z,20.45
2018-07-21T21:01:27.352Z,20.43
2018-07-21T21:03:56.041Z,20.33
2018-07-21T21:06:24.691Z,20.24
2018-07-21T21:08:53.436Z,20.15
2018-07-21T21:11:22.483Z,20.04
2018-07-21T21:13:51.092Z,19.90
2018-07-21T21:16:20.010Z,19.69
2018-07-21T21:18:48.740Z,19.50
2018-07-21T21:21:17.611Z,19.27
2018-07-21T21:23:46.167Z,19.07
2018-07-21T21:26:14.844Z,18.91
2018-07-21T21:28:43.607Z,18.70
2018-07-21T21:31:12.404Z,18.53
2018-07-21T21:33:41.152Z,18.36
2018-07-21T21:36:09.967Z,18.21
2018-07-21T21:38:38.671Z,18.08
2018-07-21T21:41:07.410Z,17.93
2018-07-21T21:43:36.106Z,17.89
2018-07-21T21:46:05.039Z,17.82
2018-07-21T21:48:33.633Z,17.74
2018-07-21T21:51:02.320Z,17.68
2018-07-21T21:53:30.938Z,17.64
2018-07-21T21:55:59.625Z,17.61
2018-07-21T21:58:28.357Z,17.57
2018-07-21T22:01:09.465Z,17.51
2018-07-21T22:03:38.065Z,17.41
2018-07-21T22:06:06.760Z,17.33
2018-07-21T22:08:35.526Z,17.24
2018-07-21T22:11:04.691Z,17.14
2018-07-21T22:13:33.450Z,17.06
2018-07-21T22:16:02.152Z,17.00
2018-07-21T22:18:31.643Z,16.95
2018-07-21T22:21:00.484Z,16.90
2018-07-21T22:23:29.214Z,16.82
2018-07-21T22:25:57.857Z,16.75
2018-07-21T22:28:26.506Z,16.71
2018-07-21T22:30:55.364Z,16.70
2018-07-21T22:33:24.061Z,16.73
2018-07-21T22:35:52.740Z,16.78
2018-07-21T22:38:21.636Z,16.90
2018-07-21T22:40:50.350Z,16.94
2018-07-21T22:43:19.150Z,16.92
2018-07-21T22:45:47.931Z,16.95
2018-07-21T22:48:16.710Z,17.26
2018-07-21T22:50:45.383Z,17.48
2018-07-21T22:53:13.979Z,17.55
2018-07-21T22:55:42.664Z,17.61
2018-07-21T22:58:11.465Z,17.86
2018-07-21T23:00:40.229Z,18.12
2018-07-21T23:03:09.004Z,18.23
2018-07-21T23:05:37.740Z,18.30
2018-07-21T23:08:06.386Z,18.34
2018-07-21T23:10:35.104Z,18.32
2018-07-21T23:13:03.938Z,18.27
2018-07-21T23:15:32.595Z,18.27
2018-07-21T23:18:01.779Z,18.28
2018-07-21T23:20:30.532Z,18.44
2018-07-21T23:22:59.440Z,18.58
2018-07-21T23:25:28.088Z,18.56
2018-07-21T23:27:57.449Z,18.45
2018-07-21T23:30:26.229Z,18.29
2018-07-21T23:32:54.990Z,18.13
2018-07-21T23:35:24.534Z,17.96
2018-07-21T23:37:53.274Z,17.81
2018-07-21T23:40:22.073Z,17.69
2018-07-21T23:42:50.901Z,17.60
2018-07-21T23:45:19.610Z,17.59
2018-07-21T23:47:48.280Z,17.54
2018-07-21T23:50:16.843Z,17.41
2018-07-21T23:52:45.375Z,17.32
2018-07-21T23:55:14.007Z,17.30
2018-07-21T23:57:42.820Z,17.29
